Time;durP1;ratioP1;P1;durP2;ratioP2;P2;SDS_P1;SDS_P2;PMS_P1;PMS_P2;Temp;Humidity;BMP_temperature;BMP_pressure;BME280_temperature;BME280_humidity;BME280_pressure;Samples;Min_cycle;Max_cycle;Signal;HPM_P1;HPM_P2
2023/02/15 00:00:10;;;;;;;16.98;6.85;;;;;;;;;;1031257;28;20541;-17
2023/02/15 00:00:40;;;;;;;12.38;7.78;;;;;;;;;;1030625;28;20034;-17
2023/02/15 00:01:11;;;;;;;16.70;5.85;;;;;;;;;;1031569;28;20117;-17
2023/02/15 00:01:42;;;;;;;27.27;10.98;;;;;;;;;;1031534;28;20033;-17
2023/02/15 00:02:12;;;;;;;21.38;8.27;;;;;;;;;;1031738;28;20027;-19
2023/02/15 00:02:42;;;;;;;20.17;8.65;;;;;;;;;;1031613;28;20034;-17
2023/02/15 00:03:15;;;;;;;12.45;7.53;;;;;;;;;;1031423;28;20098;-19
2023/02/15 00:03:48;;;;;;;12.65;7.10;;;;;;;;;;1031616;28;20062;-19
2023/02/15 00:04:20;;;;;;;14.05;8.32;;;;;;;;;;1031173;28;20018;-18
2023/02/15 00:04:51;;;;;;;12.63;6.70;;;;;;;;;;1031699;28;20022;-16
2023/02/15 00:05:21;;;;;;;24.25;8.60;;;;;;;;;;1031423;28;20375;-19
2023/02/15 00:05:52;;;;;;;12.43;8.40;;;;;;;;;;1031715;28;20026;-18
2023/02/15 00:06:22;;;;;;;13.18;8.43;;;;;;;;;;1031335;28;20023;-17
2023/02/15 00:06:53;;;;;;;13.80;6.78;;;;;;;;;;1030523;28;20109;-19
2023/02/15 00:07:23;;;;;;;17.77;8.23;;;;;;;;;;1031440;28;20034;-21
2023/02/15 00:07:53;;;;;;;22.80;9.32;;;;;;;;;;1030676;28;20022;-21
2023/02/15 00:08:24;;;;;;;14.10;7.10;;;;;;;;;;1031567;28;20030;-19
2023/02/15 00:08:55;;;;;;;14.88;8.63;;;;;;;;;;1031712;28;20025;-17
2023/02/15 00:09:25;;;;;;;24.38;7.45;;;;;;;;;;1031157;28;20466;-16
2023/02/15 00:09:56;;;;;;;15.00;10.32;;;;;;;;;;1031506;28;20026;-19
2023/02/15 00:10:26;;;;;;;14.35;8.57;;;;;;;;;;1031252;28;20090;-19
2023/02/15 00:11:10;;;;;;;12.40;7.57;;;;;;;;;;1031800;28;20023;-18
2023/02/15 00:11:43;;;;;;;14.75;8.63;;;;;;;;;;1031435;28;20075;-17
2023/02/15 00:12:14;;;;;;;13.32;6.97;;;;;;;;;;1031506;28;20022;-17
2023/02/15 00:12:44;;;;;;;20.58;8.25;;;;;;;;;;1031612;28;20022;-17
2023/02/15 00:13:14;;;;;;;19.13;8.20;;;;;;;;;;1031392;28;20470;-17
2023/02/15 00:13:45;;;;;;;12.13;7.53;;;;;;;;;;1031668;28;20597;-18
2023/02/15 00:14:17;;;;;;;9.50;5.95;;;;;;;;;;1031456;28;20465;-18
2023/02/15 00:14:47;;;;;;;14.38;9.90;;;;;;;;;;1031567;28;20037;-19
2023/02/15 00:15:17;;;;;;;8.70;5.97;;;;;;;;;;1031452;28;20581;-21
2023/02/15 00:15:48;;;;;;;14.63;8.00;;;;;;;;;;1031653;28;20393;-18
2023/02/15 00:16:18;;;;;;;17.00;10.10;;;;;;;;;;1031438;28;20117;-18
2023/02/15 00:16:50;;;;;;;15.20;10.05;;;;;;;;;;1031509;28;20044;-16
2023/02/15 00:17:21;;;;;;;18.75;9.75;;;;;;;;;;1031305;28;20117;-17
2023/02/15 00:17:51;;;;;;;16.85;8.02;;;;;;;;;;1031664;28;20481;-20
2023/02/15 00:18:21;;;;;;;10.95;7.40;;;;;;;;;;1031496;28;20463;-16
2023/02/15 00:18:52;;;;;;;26.70;8.48;;;;;;;;;;1031676;28;20442;-17
2023/02/15 00:19:22;;;;;;;11.18;8.20;;;;;;;;;;1031377;28;20375;-18
2023/02/15 00:19:53;;;;;;;9.25;5.90;;;;;;;;;;1031656;28;20033;-16
2023/02/15 00:20:23;;;;;;;16.30;8.32;;;;;;;;;;1031529;28;20026;-17
2023/02/15 00:20:54;;;;;;;10.43;7.72;;;;;;;;;;1031641;28;20161;-20
2023/02/15 00:21:24;;;;;;;25.60;8.30;;;;;;;;;;1029679;28;20088;-16
2023/02/15 00:21:55;;;;;;;17.25;9.95;;;;;;;;;;1031297;28;20022;-18
2023/02/15 00:22:26;;;;;;;14.70;9.82;;;;;;;;;;1031095;28;20022;-19
2023/02/15 00:22:57;;;;;;;21.67;9.77;;;;;;;;;;1031266;28;20027;-20
2023/02/15 00:23:27;;;;;;;18.23;9.75;;;;;;;;;;1031449;28;20557;-19
2023/02/15 00:23:59;;;;;;;11.30;8.15;;;;;;;;;;1031503;28;20045;-18
2023/02/15 00:24:29;;;;;;;12.68;9.23;;;;;;;;;;1031370;28;20038;-18
2023/02/15 00:25:00;;;;;;;15.30;9.25;;;;;;;;;;1031556;28;20135;-18
2023/02/15 00:25:30;;;;;;;14.40;7.85;;;;;;;;;;1031282;28;20132;-19
2023/02/15 00:26:05;;;;;;;9.80;6.45;;;;;;;;;;1031634;28;20084;-17
2023/02/15 00:26:35;;;;;;;13.25;8.30;;;;;;;;;;1031146;28;20041;-17
2023/02/15 00:27:06;;;;;;;12.68;8.27;;;;;;;;;;1031542;28;20453;-21
2023/02/15 00:27:36;;;;;;;14.43;8.52;;;;;;;;;;1031109;28;20722;-17
2023/02/15 00:28:07;;;;;;;24.15;8.73;;;;;;;;;;1031719;28;20026;-18
2023/02/15 00:28:37;;;;;;;28.05;8.20;;;;;;;;;;1031461;28;20035;-19
2023/02/15 00:29:09;;;;;;;13.05;8.10;;;;;;;;;;1031484;28;20113;-17
2023/02/15 00:29:39;;;;;;;9.43;7.03;;;;;;;;;;1030444;28;20022;-18
2023/02/15 00:30:10;;;;;;;13.40;7.68;;;;;;;;;;1031620;28;20525;-20
2023/02/15 00:30:40;;;;;;;21.58;11.32;;;;;;;;;;1031326;28;20466;-17
2023/02/15 00:31:11;;;;;;;15.40;8.90;;;;;;;;;;1031535;28;20058;-17
2023/02/15 00:31:42;;;;;;;11.73;6.90;;;;;;;;;;1031470;28;20036;-19
2023/02/15 00:32:12;;;;;;;18.80;9.63;;;;;;;;;;1031487;28;20048;-16
2023/02/15 00:32:43;;;;;;;19.08;6.75;;;;;;;;;;1031536;28;20501;-18
2023/02/15 00:33:13;;;;;;;10.55;7.30;;;;;;;;;;1031421;28;20474;-17
2023/02/15 00:33:43;;;;;;;14.07;8.10;;;;;;;;;;1031542;28;20353;-16
2023/02/15 00:34:15;;;;;;;8.98;7.18;;;;;;;;;;1031029;28;20022;-16
2023/02/15 00:34:46;;;;;;;23.13;8.18;;;;;;;;;;1031347;28;20107;-19
2023/02/15 00:35:16;;;;;;;14.55;7.93;;;;;;;;;;1031031;28;20073;-19
2023/02/15 00:35:46;;;;;;;12.73;6.80;;;;;;;;;;1031368;28;20022;-17
2023/02/15 00:36:17;;;;;;;14.60;9.15;;;;;;;;;;1030765;28;20030;-18
2023/02/15 00:36:47;;;;;;;8.82;5.28;;;;;;;;;;1031418;28;20129;-18
2023/02/15 00:37:18;;;;;;;12.45;7.32;;;;;;;;;;1031275;28;20022;-17
2023/02/15 00:37:48;;;;;;;14.93;7.80;;;;;;;;;;1031567;28;20022;-18
2023/02/15 00:38:19;;;;;;;15.82;8.50;;;;;;;;;;1031240;28;20073;-18
2023/02/15 00:38:49;;;;;;;14.23;8.80;;;;;;;;;;1031523;28;20026;-17
2023/02/15 00:39:20;;;;;;;12.15;8.90;;;;;;;;;;1031263;28;20026;-18
2023/02/15 00:39:50;;;;;;;18.50;8.98;;;;;;;;;;1031513;28;20037;-18
2023/02/15 00:40:21;;;;;;;13.55;8.10;;;;;;;;;;1030926;28;20022;-18
2023/02/15 00:40:52;;;;;;;18.95;6.90;;;;;;;;;;1031567;28;20111;-17
2023/02/15 00:41:23;;;;;;;18.23;8.55;;;;;;;;;;1031269;28;20038;-18
2023/02/15 00:41:53;;;;;;;25.45;7.55;;;;;;;;;;1030468;28;20081;-19
2023/02/15 00:42:24;;;;;;;18.63;8.20;;;;;;;;;;1031404;28;20015;-19
2023/02/15 00:42:54;;;;;;;23.17;9.63;;;;;;;;;;1031558;28;20044;-18
2023/02/15 00:43:25;;;;;;;12.82;7.18;;;;;;;;;;1031286;28;20014;-19
2023/02/15 00:43:56;;;;;;;12.90;7.40;;;;;;;;;;1031648;28;20133;-16
2023/02/15 00:44:26;;;;;;;21.52;7.35;;;;;;;;;;1031300;28;20055;-15
2023/02/15 00:44:57;;;;;;;17.00;7.88;;;;;;;;;;1031570;28;20034;-16
2023/02/15 00:45:27;;;;;;;13.43;7.75;;;;;;;;;;1031335;28;20049;-16
2023/02/15 00:45:58;;;;;;;18.23;6.30;;;;;;;;;;1031614;28;20030;-16
2023/02/15 00:46:28;;;;;;;21.25;9.25;;;;;;;;;;1031187;28;20030;-17
2023/02/15 00:46:59;;;;;;;12.18;7.28;;;;;;;;;;1031486;28;20031;-16
2023/02/15 00:47:29;;;;;;;14.43;8.10;;;;;;;;;;1031321;28;20031;-17
2023/02/15 00:48:00;;;;;;;17.10;8.15;;;;;;;;;;1031967;28;20014;-18
2023/02/15 00:48:30;;;;;;;16.42;8.73;;;;;;;;;;1031540;28;20100;-18
2023/02/15 00:49:01;;;;;;;27.60;8.98;;;;;;;;;;1031589;28;20032;-17
2023/02/15 00:49:31;;;;;;;14.25;8.93;;;;;;;;;;1031235;28;20026;-15
2023/02/15 00:50:03;;;;;;;17.10;7.82;;;;;;;;;;1031555;28;20034;-16
2023/02/15 00:50:33;;;;;;;18.23;8.50;;;;;;;;;;1031372;28;20026;-16
2023/02/15 00:51:03;;;;;;;28.33;9.85;;;;;;;;;;1031620;28;20018;-17
2023/02/15 00:51:34;;;;;;;21.25;8.57;;;;;;;;;;1031150;28;20026;-17
2023/02/15 00:52:04;;;;;;;19.85;11.25;;;;;;;;;;1030432;28;20018;-16
2023/02/15 00:52:35;;;;;;;23.40;10.93;;;;;;;;;;1026930;28;20027;-16
2023/02/15 00:53:05;;;;;;;18.75;9.80;;;;;;;;;;1021142;29;20423;-17
2023/02/15 00:53:36;;;;;;;22.58;9.43;;;;;;;;;;1020962;29;20388;-18
2023/02/15 00:54:06;;;;;;;20.38;8.82;;;;;;;;;;1025110;28;20023;-19
2023/02/15 00:54:38;;;;;;;18.83;9.75;;;;;;;;;;1028990;28;20113;-16
2023/02/15 00:55:08;;;;;;;14.38;10.57;;;;;;;;;;1031566;28;20053;-16
2023/02/15 00:55:40;;;;;;;11.25;8.40;;;;;;;;;;1031284;28;20022;-17
2023/02/15 00:56:10;;;;;;;13.02;6.55;;;;;;;;;;1031250;28;20026;-15
2023/02/15 00:56:41;;;;;;;19.02;9.32;;;;;;;;;;1031283;28;20069;-17
2023/02/15 00:57:11;;;;;;;12.48;7.57;;;;;;;;;;1031237;28;20466;-17
2023/02/15 00:57:42;;;;;;;17.20;10.93;;;;;;;;;;1031467;28;20033;-17
2023/02/15 00:58:13;;;;;;;13.50;8.93;;;;;;;;;;1031498;28;20053;-21
2023/02/15 00:58:43;;;;;;;27.90;8.85;;;;;;;;;;1031354;28;20026;-18
2023/02/15 00:59:14;;;;;;;28.67;9.65;;;;;;;;;;1031120;28;20117;-19
2023/02/15 00:59:44;;;;;;;19.83;7.72;;;;;;;;;;1031581;28;20045;-19
2023/02/15 01:00:15;;;;;;;22.30;10.43;;;;;;;;;;1031285;28;20033;-19
2023/02/15 01:00:46;;;;;;;16.15;8.70;;;;;;;;;;1031438;28;20065;-16
2023/02/15 01:01:18;;;;;;;20.92;8.65;;;;;;;;;;1031266;28;20023;-17
2023/02/15 01:01:48;;;;;;;15.88;7.75;;;;;;;;;;1031559;28;20025;-18
2023/02/15 01:02:18;;;;;;;12.88;8.45;;;;;;;;;;1031198;28;20033;-18
2023/02/15 01:02:49;;;;;;;16.20;8.68;;;;;;;;;;1031463;28;20553;-17
2023/02/15 01:03:20;;;;;;;22.33;6.00;;;;;;;;;;1031202;28;20501;-17
2023/02/15 01:03:51;;;;;;;10.57;6.85;;;;;;;;;;1031508;28;20397;-19
2023/02/15 01:04:21;;;;;;;17.00;7.88;;;;;;;;;;1031129;28;20030;-18
2023/02/15 01:04:52;;;;;;;14.52;7.90;;;;;;;;;;1031475;28;20457;-18
2023/02/15 01:05:22;;;;;;;8.05;4.97;;;;;;;;;;1031153;28;20030;-18
2023/02/15 01:05:53;;;;;;;17.77;6.55;;;;;;;;;;1031557;28;20026;-18
2023/02/15 01:06:23;;;;;;;10.48;6.00;;;;;;;;;;1030895;28;20078;-18
2023/02/15 01:06:54;;;;;;;12.05;7.38;;;;;;;;;;1031644;28;20022;-17
2023/02/15 01:07:24;;;;;;;6.95;5.13;;;;;;;;;;1031165;28;20022;-17
2023/02/15 01:07:55;;;;;;;11.40;5.57;;;;;;;;;;1031225;28;20083;-18
2023/02/15 01:08:26;;;;;;;6.80;3.67;;;;;;;;;;1031165;28;20026;-15
2023/02/15 01:08:56;;;;;;;8.20;4.43;;;;;;;;;;1031592;28;20054;-17
2023/02/15 01:09:27;;;;;;;8.45;5.75;;;;;;;;;;1030867;28;20026;-18
2023/02/15 01:09:57;;;;;;;14.43;6.97;;;;;;;;;;1031286;28;20053;-17
2023/02/15 01:10:28;;;;;;;9.88;4.72;;;;;;;;;;1031309;28;20030;-17
2023/02/15 01:11:09;;;;;;;8.13;6.25;;;;;;;;;;1031472;28;20121;-20
2023/02/15 01:11:39;;;;;;;24.98;5.68;;;;;;;;;;1031797;28;20033;-17
2023/02/15 01:12:10;;;;;;;7.18;4.72;;;;;;;;;;1032012;28;20390;-17
2023/02/15 01:12:40;;;;;;;7.78;3.63;;;;;;;;;;1031944;28;20026;-17
2023/02/15 01:13:10;;;;;;;5.50;4.25;;;;;;;;;;1032250;28;20030;-15
2023/02/15 01:13:41;;;;;;;10.43;5.43;;;;;;;;;;1032137;28;20033;-17
2023/02/15 01:14:13;;;;;;;9.68;5.10;;;;;;;;;;1032270;28;20030;-17
2023/02/15 01:14:43;;;;;;;5.07;4.55;;;;;;;;;;1032014;28;20018;-18
2023/02/15 01:15:13;;;;;;;10.65;6.70;;;;;;;;;;1032066;28;20518;-17
2023/02/15 01:15:44;;;;;;;13.88;7.85;;;;;;;;;;1032125;28;20121;-16
2023/02/15 01:16:15;;;;;;;8.80;5.15;;;;;;;;;;1032074;28;20026;-17
2023/02/15 01:16:45;;;;;;;9.13;5.35;;;;;;;;;;1032195;28;20061;-17
2023/02/15 01:17:15;;;;;;;17.35;7.10;;;;;;;;;;1031943;28;20030;-18
2023/02/15 01:17:51;;;;;;;12.73;7.20;;;;;;;;;;1032283;28;20026;-18
2023/02/15 01:18:22;;;;;;;11.23;8.57;;;;;;;;;;1031899;28;20471;-16
2023/02/15 01:18:54;;;;;;;12.88;5.57;;;;;;;;;;1032083;28;20061;-16
2023/02/15 01:19:24;;;;;;;12.43;6.75;;;;;;;;;;1030456;28;20030;-19
2023/02/15 01:19:55;;;;;;;12.13;6.38;;;;;;;;;;1031819;28;20452;-17
2023/02/15 01:20:27;;;;;;;14.98;8.63;;;;;;;;;;1031876;28;20030;-16
2023/02/15 01:20:57;;;;;;;17.40;7.72;;;;;;;;;;1031994;28;20022;-17
2023/02/15 01:21:28;;;;;;;10.55;7.60;;;;;;;;;;1028674;28;20537;-18
2023/02/15 01:21:59;;;;;;;9.48;5.60;;;;;;;;;;1029024;28;20038;-18
2023/02/15 01:22:29;;;;;;;12.93;5.63;;;;;;;;;;1026924;28;20031;-20
2023/02/15 01:23:00;;;;;;;14.98;8.55;;;;;;;;;;1027285;28;20026;-16
2023/02/15 01:23:32;;;;;;;6.20;5.03;;;;;;;;;;1028572;28;20118;-19
2023/02/15 01:24:03;;;;;;;11.18;6.80;;;;;;;;;;1031285;28;20077;-18
2023/02/15 01:24:34;;;;;;;14.68;7.50;;;;;;;;;;1031858;28;20398;-16
2023/02/15 01:25:04;;;;;;;20.92;7.20;;;;;;;;;;1027769;28;20432;-17
2023/02/15 01:25:36;;;;;;;12.40;5.10;;;;;;;;;;1027689;28;20030;-19
2023/02/15 01:26:06;;;;;;;8.82;6.07;;;;;;;;;;1027304;28;20022;-17
2023/02/15 01:26:38;;;;;;;10.10;4.90;;;;;;;;;;1027485;28;20038;-17
2023/02/15 01:27:10;;;;;;;11.35;6.03;;;;;;;;;;1031432;28;20058;-19
2023/02/15 01:27:40;;;;;;;19.45;6.68;;;;;;;;;;1030288;28;20022;-18
2023/02/15 01:28:11;;;;;;;12.82;7.00;;;;;;;;;;1031257;28;20128;-18
2023/02/15 01:28:46;;;;;;;11.93;5.78;;;;;;;;;;1031031;28;20036;-19
2023/02/15 01:29:19;;;;;;;8.98;7.00;;;;;;;;;;1030803;28;20034;-18
2023/02/15 01:29:50;;;;;;;11.65;7.13;;;;;;;;;;1030826;28;20030;-17
2023/02/15 01:30:20;;;;;;;26.73;6.05;;;;;;;;;;1031115;28;20054;-19
2023/02/15 01:30:55;;;;;;;8.02;5.75;;;;;;;;;;1029832;28;20027;-17
2023/02/15 01:31:25;;;;;;;12.30;7.97;;;;;;;;;;1028895;28;20030;-19
2023/02/15 01:31:56;;;;;;;13.30;7.47;;;;;;;;;;1029302;28;20113;-17
2023/02/15 01:32:27;;;;;;;12.10;6.10;;;;;;;;;;1028276;28;20136;-19
2023/02/15 01:33:00;;;;;;;11.02;6.35;;;;;;;;;;1029191;28;20373;-19
2023/02/15 01:33:35;;;;;;;38.92;8.38;;;;;;;;;;1025928;28;20429;-20
2023/02/15 01:34:06;;;;;;;20.23;7.05;;;;;;;;;;1025140;28;20027;-16
2023/02/15 01:34:38;;;;;;;24.90;9.65;;;;;;;;;;1026369;28;20062;-18
2023/02/15 01:35:11;;;;;;;12.32;6.72;;;;;;;;;;1026731;28;20137;-18
2023/02/15 01:35:41;;;;;;;25.17;8.73;;;;;;;;;;1026368;28;20125;-18
2023/02/15 01:36:14;;;;;;;14.60;7.50;;;;;;;;;;1030482;28;20026;-18
2023/02/15 01:36:46;;;;;;;22.50;8.50;;;;;;;;;;1030596;28;20022;-18
2023/02/15 01:37:17;;;;;;;13.77;6.43;;;;;;;;;;1029602;28;20022;-17
2023/02/15 01:37:48;;;;;;;10.18;6.93;;;;;;;;;;1025085;28;20029;-19
2023/02/15 01:38:19;;;;;;;9.70;7.00;;;;;;;;;;1025964;28;20545;-17
2023/02/15 01:38:50;;;;;;;18.38;7.43;;;;;;;;;;1026780;28;20023;-19
2023/02/15 01:39:20;;;;;;;10.23;6.30;;;;;;;;;;1025472;28;20681;-18
2023/02/15 01:39:51;;;;;;;18.85;9.85;;;;;;;;;;1030119;28;20034;-16
2023/02/15 01:40:23;;;;;;;18.42;8.43;;;;;;;;;;1029094;28;20037;-17
2023/02/15 01:41:19;;;;;;;18.90;7.70;;;;;;;;;;1031090;28;20033;-18
2023/02/15 01:41:44;;;;;;;15.77;9.48;;;;;;;;;;1030775;28;20576;-16
2023/02/15 01:42:21;;;;;;;11.95;6.10;;;;;;;;;;1030292;28;20097;-18
2023/02/15 01:42:53;;;;;;;17.15;10.73;;;;;;;;;;1029315;28;20030;-18
2023/02/15 01:43:38;;;;;;;18.27;6.88;;;;;;;;;;1028936;28;20033;-19
2023/02/15 01:44:28;;;;;;;18.65;7.07;;;;;;;;;;1029970;28;20061;-16
2023/02/15 01:45:00;;;;;;;21.63;9.75;;;;;;;;;;1030360;28;20593;-19
2023/02/15 01:45:31;;;;;;;11.45;6.65;;;;;;;;;;1030145;28;20022;-18
2023/02/15 01:46:02;;;;;;;17.58;9.48;;;;;;;;;;1030931;28;20025;-17
2023/02/15 01:46:35;;;;;;;18.05;9.38;;;;;;;;;;1029847;28;20018;-17
2023/02/15 01:47:08;;;;;;;20.90;9.60;;;;;;;;;;1025800;28;20034;-18
2023/02/15 01:47:45;;;;;;;23.60;11.75;;;;;;;;;;1026349;28;20037;-20
2023/02/15 01:48:15;;;;;;;18.95;10.13;;;;;;;;;;1027070;28;20033;-16
2023/02/15 01:48:48;;;;;;;19.98;8.55;;;;;;;;;;1028248;28;20023;-17
2023/02/15 01:49:20;;;;;;;21.70;11.25;;;;;;;;;;1030470;28;20038;-17
2023/02/15 01:49:56;;;;;;;31.92;9.20;;;;;;;;;;1030791;28;20026;-20
2023/02/15 01:50:27;;;;;;;14.23;7.75;;;;;;;;;;1030928;28;20027;-15
2023/02/15 01:51:00;;;;;;;19.92;10.18;;;;;;;;;;1031350;28;20034;-19
2023/02/15 01:51:32;;;;;;;21.15;12.32;;;;;;;;;;1029549;28;20113;-19
2023/02/15 01:52:02;;;;;;;19.65;10.35;;;;;;;;;;1031258;28;20482;-17
2023/02/15 01:52:36;;;;;;;27.50;12.75;;;;;;;;;;1031082;28;20373;-17
2023/02/15 01:53:25;;;;;;;47.88;13.68;;;;;;;;;;1031850;28;20042;-17
2023/02/15 01:53:59;;;;;;;25.73;11.40;;;;;;;;;;1030264;28;20038;-15
2023/02/15 01:54:32;;;;;;;26.25;11.77;;;;;;;;;;1025618;28;20624;-17
2023/02/15 01:55:04;;;;;;;22.73;11.27;;;;;;;;;;1026554;28;20019;-15
2023/02/15 01:55:38;;;;;;;24.70;13.15;;;;;;;;;;1026312;28;20074;-17
2023/02/15 01:56:14;;;;;;;48.47;13.38;;;;;;;;;;1027473;28;20042;-16
2023/02/15 01:56:46;;;;;;;37.53;15.65;;;;;;;;;;1030071;28;21058;-19
2023/02/15 01:57:19;;;;;;;30.17;13.20;;;;;;;;;;1029558;28;20041;-18
2023/02/15 01:57:49;;;;;;;25.17;12.88;;;;;;;;;;1030613;28;20085;-18
2023/02/15 01:58:21;;;;;;;39.78;15.88;;;;;;;;;;1030441;28;20438;-18
2023/02/15 01:58:53;;;;;;;23.70;12.90;;;;;;;;;;1031070;28;20023;-20
2023/02/15 01:59:24;;;;;;;43.42;15.68;;;;;;;;;;1030352;28;20034;-17
2023/02/15 01:59:58;;;;;;;44.33;16.25;;;;;;;;;;1027676;28;20031;-19
2023/02/15 02:00:29;;;;;;;35.85;14.57;;;;;;;;;;1023749;28;20451;-19
2023/02/15 02:01:03;;;;;;;28.83;14.75;;;;;;;;;;1024076;28;20042;-17
2023/02/15 02:01:35;;;;;;;27.60;13.77;;;;;;;;;;1025200;28;20026;-19
2023/02/15 02:02:07;;;;;;;34.00;14.27;;;;;;;;;;1026555;28;20057;-16
2023/02/15 02:02:38;;;;;;;30.52;13.48;;;;;;;;;;1030406;28;20402;-17
2023/02/15 02:03:09;;;;;;;34.85;14.50;;;;;;;;;;1029751;28;20037;-17
2023/02/15 02:03:45;;;;;;;45.85;16.10;;;;;;;;;;1030315;28;20030;-17
2023/02/15 02:04:16;;;;;;;44.13;14.38;;;;;;;;;;1031253;28;20034;-19
2023/02/15 02:04:48;;;;;;;35.50;15.13;;;;;;;;;;1030847;28;20109;-17
2023/02/15 02:05:19;;;;;;;33.72;15.68;;;;;;;;;;1030627;28;20037;-19
2023/02/15 02:05:49;;;;;;;19.33;12.57;;;;;;;;;;1031176;28;20026;-18
2023/02/15 02:06:20;;;;;;;28.52;14.32;;;;;;;;;;1031642;28;20481;-18
2023/02/15 02:06:51;;;;;;;25.85;12.20;;;;;;;;;;1031283;28;20034;-17
2023/02/15 02:07:24;;;;;;;29.38;16.90;;;;;;;;;;1030275;28;20603;-19
2023/02/15 02:07:57;;;;;;;25.00;13.63;;;;;;;;;;1029850;28;20069;-17
2023/02/15 02:08:27;;;;;;;42.10;16.17;;;;;;;;;;1027326;28;20023;-17
2023/02/15 02:08:58;;;;;;;18.08;10.23;;;;;;;;;;1026982;28;20049;-18
2023/02/15 02:09:28;;;;;;;23.50;14.32;;;;;;;;;;1030553;28;20109;-19
2023/02/15 02:09:59;;;;;;;21.45;12.05;;;;;;;;;;1029776;28;20026;-18
2023/02/15 02:10:30;;;;;;;22.55;12.50;;;;;;;;;;1028980;28;20022;-18
2023/02/15 02:11:01;;;;;;;36.47;16.23;;;;;;;;;;1030351;28;20034;-18
2023/02/15 02:11:32;;;;;;;34.13;13.30;;;;;;;;;;1030484;28;20133;-17
2023/02/15 02:12:02;;;;;;;23.50;14.30;;;;;;;;;;1029209;28;20137;-19
2023/02/15 02:12:33;;;;;;;21.60;11.27;;;;;;;;;;1030799;28;21002;-18
2023/02/15 02:13:05;;;;;;;13.90;9.40;;;;;;;;;;1031420;28;20136;-18
2023/02/15 02:13:36;;;;;;;25.13;12.10;;;;;;;;;;1030199;28;20042;-17
2023/02/15 02:14:06;;;;;;;22.33;11.43;;;;;;;;;;1030130;28;20430;-19
2023/02/15 02:14:38;;;;;;;18.27;9.63;;;;;;;;;;1029739;28;20033;-18
2023/02/15 02:15:08;;;;;;;16.63;9.35;;;;;;;;;;1028720;28;20026;-16
2023/02/15 02:16:06;;;;;;;23.27;10.70;;;;;;;;;;1030237;28;20432;-18
2023/02/15 02:16:43;;;;;;;19.38;8.95;;;;;;;;;;1030996;28;20022;-19
2023/02/15 02:17:21;;;;;;;21.58;8.50;;;;;;;;;;1029266;28;20054;-19
2023/02/15 02:17:55;;;;;;;22.77;10.85;;;;;;;;;;1030270;28;20030;-17
2023/02/15 02:18:38;;;;;;;28.67;13.05;;;;;;;;;;1029590;28;20410;-18
2023/02/15 02:19:28;;;;;;;25.02;14.25;;;;;;;;;;1030456;28;20014;-17
2023/02/15 02:20:08;;;;;;;25.48;10.35;;;;;;;;;;1030993;28;20034;-17
2023/02/15 02:20:49;;;;;;;13.68;9.15;;;;;;;;;;1029887;28;20389;-18
2023/02/15 02:21:40;;;;;;;13.93;9.25;;;;;;;;;;1030211;28;20128;-18
2023/02/15 02:22:31;;;;;;;28.48;11.38;;;;;;;;;;1029920;28;20042;-16
2023/02/15 02:23:02;;;;;;;19.88;10.85;;;;;;;;;;1023472;28;20035;-16
2023/02/15 02:23:51;;;;;;;25.02;9.02;;;;;;;;;;1029947;28;20030;-18
2023/02/15 02:24:40;;;;;;;16.65;10.70;;;;;;;;;;1029942;28;20034;-18
2023/02/15 02:25:19;;;;;;;23.55;11.32;;;;;;;;;;1029705;28;20034;-19
2023/02/15 02:25:50;;;;;;;16.17;11.40;;;;;;;;;;1030552;28;20750;-19
2023/02/15 02:26:26;;;;;;;20.77;11.98;;;;;;;;;;1029562;28;20038;-19
2023/02/15 02:27:12;;;;;;;22.48;10.88;;;;;;;;;;1030965;28;20101;-17
2023/02/15 02:28:01;;;;;;;15.25;9.68;;;;;;;;;;1030825;28;20041;-18
2023/02/15 02:28:58;;;;;;;11.55;8.48;;;;;;;;;;1027735;28;20018;-18
2023/02/15 02:29:56;;;;;;;21.88;7.30;;;;;;;;;;1008733;29;22079;-18
2023/02/15 02:30:27;;;;;;;20.35;9.07;;;;;;;;;;1028251;28;20041;-17
2023/02/15 02:31:10;;;;;;;20.02;8.27;;;;;;;;;;1031089;28;20023;-17
2023/02/15 02:31:53;;;;;;;18.40;8.13;;;;;;;;;;1031010;28;20050;-16
2023/02/15 02:32:23;;;;;;;20.58;9.32;;;;;;;;;;1030704;28;20030;-17
2023/02/15 02:32:54;;;;;;;17.50;8.10;;;;;;;;;;1031272;28;20109;-16
2023/02/15 02:33:33;;;;;;;36.40;11.45;;;;;;;;;;1030037;28;20168;-18
2023/02/15 02:34:03;;;;;;;27.38;10.27;;;;;;;;;;1030412;28;20033;-18
2023/02/15 02:34:42;;;;;;;19.58;10.27;;;;;;;;;;1030936;28;20417;-16
2023/02/15 02:35:12;;;;;;;20.05;11.20;;;;;;;;;;1030898;28;20125;-17
2023/02/15 02:35:49;;;;;;;21.98;9.13;;;;;;;;;;1031318;28;20463;-17
2023/02/15 02:36:19;;;;;;;21.13;13.15;;;;;;;;;;1030196;28;20030;-20
2023/02/15 02:36:59;;;;;;;30.08;13.55;;;;;;;;;;1030006;28;20521;-18
2023/02/15 02:37:30;;;;;;;29.27;11.45;;;;;;;;;;1029816;28;20578;-16
2023/02/15 02:38:09;;;;;;;15.35;9.98;;;;;;;;;;1030952;28;20045;-17
2023/02/15 02:38:45;;;;;;;18.35;11.27;;;;;;;;;;1029606;28;20041;-17
2023/02/15 02:39:33;;;;;;;25.30;11.07;;;;;;;;;;1029423;28;20074;-16
2023/02/15 02:40:22;;;;;;;26.65;11.75;;;;;;;;;;1030748;28;20462;-16
2023/02/15 02:41:00;;;;;;;24.52;13.57;;;;;;;;;;1030804;28;20026;-19
2023/02/15 02:41:36;;;;;;;26.75;12.93;;;;;;;;;;1029754;28;20034;-19
2023/02/15 02:42:15;;;;;;;36.20;12.10;;;;;;;;;;1029565;28;20058;-17
2023/02/15 02:42:59;;;;;;;40.33;11.57;;;;;;;;;;1030183;28;20446;-19
2023/02/15 02:43:33;;;;;;;20.90;8.82;;;;;;;;;;1029686;28;20474;-18
2023/02/15 02:44:04;;;;;;;11.27;8.15;;;;;;;;;;1030011;28;20030;-18
2023/02/15 02:44:39;;;;;;;15.25;11.82;;;;;;;;;;1030442;28;20026;-19
2023/02/15 02:45:10;;;;;;;14.63;9.23;;;;;;;;;;1029133;28;20022;-18
2023/02/15 02:45:58;;;;;;;18.10;9.07;;;;;;;;;;1030518;28;20117;-18
2023/02/15 02:46:31;;;;;;;45.53;10.82;;;;;;;;;;1029443;28;20022;-17
2023/02/15 02:47:05;;;;;;;28.35;9.65;;;;;;;;;;1030214;28;20042;-18
2023/02/15 02:47:56;;;;;;;28.50;11.38;;;;;;;;;;1028999;28;21702;-18
2023/02/15 02:48:29;;;;;;;22.15;11.80;;;;;;;;;;1026946;28;20018;-17
2023/02/15 02:49:01;;;;;;;15.00;9.30;;;;;;;;;;1027423;28;20038;-17
2023/02/15 02:49:34;;;;;;;25.92;15.18;;;;;;;;;;1026689;28;20027;-17
2023/02/15 02:50:10;;;;;;;26.63;11.45;;;;;;;;;;1028901;28;20033;-19
2023/02/15 02:50:44;;;;;;;19.98;11.20;;;;;;;;;;1029159;28;20042;-20
2023/02/15 02:51:21;;;;;;;19.50;11.70;;;;;;;;;;1029525;28;20030;-21
2023/02/15 02:52:03;;;;;;;22.67;8.75;;;;;;;;;;1028803;28;20018;-19
2023/02/15 02:52:40;;;;;;;29.63;12.07;;;;;;;;;;1023066;28;20030;-18
2023/02/15 02:53:12;;;;;;;20.73;11.57;;;;;;;;;;1027507;28;20506;-18
2023/02/15 02:53:44;;;;;;;28.55;12.68;;;;;;;;;;1024921;28;20042;-18
2023/02/15 02:54:15;;;;;;;48.38;14.95;;;;;;;;;;1022462;28;20070;-17
2023/02/15 02:54:47;;;;;;;32.72;12.25;;;;;;;;;;1025339;28;20033;-16
2023/02/15 02:55:32;;;;;;;23.70;10.57;;;;;;;;;;1024423;28;20031;-19
2023/02/15 02:56:13;;;;;;;35.78;14.85;;;;;;;;;;1028363;28;20035;-20
2023/02/15 02:56:43;;;;;;;;;;;;;;;;;;1029353;28;20919;-17
2023/02/15 02:57:16;;;;;;;19.33;10.02;;;;;;;;;;1028064;28;19992;-20
2023/02/15 02:57:54;;;;;;;19.65;10.02;;;;;;;;;;1029674;28;20034;-18
2023/02/15 02:58:30;;;;;;;22.15;11.93;;;;;;;;;;1027453;28;20042;-19
2023/02/15 02:59:04;;;;;;;20.20;11.43;;;;;;;;;;1028741;28;20041;-16
2023/02/15 02:59:42;;;;;;;30.48;12.05;;;;;;;;;;1028377;28;20018;-21
2023/02/15 03:00:16;;;;;;;14.23;9.23;;;;;;;;;;1026722;28;21359;-16
2023/02/15 03:00:54;;;;;;;18.30;10.32;;;;;;;;;;1023890;28;20031;-17
2023/02/15 03:01:39;;;;;;;19.05;9.55;;;;;;;;;;1026370;28;20022;-20
2023/02/15 03:02:23;;;;;;;15.60;6.90;;;;;;;;;;1017411;28;20031;-16
2023/02/15 03:03:04;;;;;;;13.55;8.05;;;;;;;;;;1018906;29;20079;-20
2023/02/15 03:04:00;;;;;;;19.10;8.93;;;;;;;;;;1019654;28;20479;-19
2023/02/15 03:04:33;;;;;;;15.60;6.75;;;;;;;;;;1018955;28;20036;-19
2023/02/15 03:05:10;;;;;;;26.60;9.00;;;;;;;;;;1029762;28;20034;-18
2023/02/15 03:05:48;;;;;;;20.08;9.20;;;;;;;;;;1027729;28;20022;-17
2023/02/15 03:06:23;;;;;;;25.15;10.27;;;;;;;;;;1023115;28;20030;-17
2023/02/15 03:07:02;;;;;;;34.05;13.52;;;;;;;;;;1023336;28;20019;-19
2023/02/15 03:07:36;;;;;;;18.65;11.98;;;;;;;;;;1020373;28;20364;-19
2023/02/15 03:08:09;;;;;;;22.77;9.52;;;;;;;;;;1016903;28;20039;-18
2023/02/15 03:08:42;;;;;;;21.40;9.35;;;;;;;;;;1019561;28;20039;-17
2023/02/15 03:09:20;;;;;;;;;;;;;;;;;;1017567;28;20037;-16
2023/02/15 03:09:53;;;;;;;16.52;11.18;;;;;;;;;;1026642;28;19921;-19
2023/02/15 03:10:29;;;;;;;18.92;10.25;;;;;;;;;;1023228;28;20027;-18
2023/02/15 03:11:03;;;;;;;16.05;8.90;;;;;;;;;;1028028;28;20030;-20
2023/02/15 03:11:36;;;;;;;21.65;11.18;;;;;;;;;;1029132;28;21342;-16
2023/02/15 03:12:14;;;;;;;10.85;6.85;;;;;;;;;;1026561;28;20119;-17
2023/02/15 03:12:48;;;;;;;5.13;4.03;;;;;;;;;;1024710;28;20041;-16
2023/02/15 03:13:21;;;;;;;18.70;8.57;;;;;;;;;;1025056;28;20109;-19
2023/02/15 03:13:52;;;;;;;11.05;7.35;;;;;;;;;;1025018;28;20034;-19
2023/02/15 03:14:25;;;;;;;22.30;8.10;;;;;;;;;;1021866;28;20439;-18
2023/02/15 03:15:11;;;;;;;22.38;9.30;;;;;;;;;;1024268;28;20034;-17
2023/02/15 03:16:51;;;;;;;6.78;4.35;;;;;;;;;;1011678;29;20633;-18
2023/02/15 03:17:23;;;;;;;22.55;8.07;;;;;;;;;;1010715;29;20067;-18